sensor_id;sensor_type;location;lat;lon;timestamp;temperature;humidity
59007;DHT22;44792;52.760;6.726;2023-02-28T00:00:25;4.10;99.90
59007;DHT22;44792;52.760;6.726;2023-02-28T00:02:51;4.00;99.90
59007;DHT22;44792;52.760;6.726;2023-02-28T00:05:20;4.00;99.90
59007;DHT22;44792;52.760;6.726;2023-02-28T00:07:47;4.00;99.90
59007;DHT22;44792;52.760;6.726;2023-02-28T00:10:15;4.10;99.90
59007;DHT22;44792;52.760;6.726;2023-02-28T00:12:44;4.00;99.90
59007;DHT22;44792;52.760;6.726;2023-02-28T00:15:11;4.10;99.90
59007;DHT22;44792;52.760;6.726;2023-02-28T00:17:37;4.10;99.90
59007;DHT22;44792;52.760;6.726;2023-02-28T00:20:04;4.10;99.90
59007;DHT22;44792;52.760;6.726;2023-02-28T00:22:33;4.10;99.90
59007;DHT22;44792;52.760;6.726;2023-02-28T00:24:58;4.10;99.90
59007;DHT22;44792;52.760;6.726;2023-02-28T00:27:24;4.10;99.90
59007;DHT22;44792;52.760;6.726;2023-02-28T00:29:49;4.10;99.90
59007;DHT22;44792;52.760;6.726;2023-02-28T00:32:15;4.10;99.90
59007;DHT22;44792;52.760;6.726;2023-02-28T00:34:40;4.10;99.90
59007;DHT22;44792;52.760;6.726;2023-02-28T00:37:08;4.10;99.90
59007;DHT22;44792;52.760;6.726;2023-02-28T00:39:36;4.10;99.90
59007;DHT22;44792;52.760;6.726;2023-02-28T00:42:02;4.10;99.90
59007;DHT22;44792;52.760;6.726;2023-02-28T00:44:28;4.10;99.90
59007;DHT22;44792;52.760;6.726;2023-02-28T00:46:54;4.20;99.90
59007;DHT22;44792;52.760;6.726;2023-02-28T00:49:20;4.10;99.90
59007;DHT22;44792;52.760;6.726;2023-02-28T00:51:46;4.10;99.90
59007;DHT22;44792;52.760;6.726;2023-02-28T00:54:12;4.20;99.90
59007;DHT22;44792;52.760;6.726;2023-02-28T00:56:38;4.20;99.90
59007;DHT22;44792;52.760;6.726;2023-02-28T00:59:03;4.10;99.90
59007;DHT22;44792;52.760;6.726;2023-02-28T01:01:29;4.10;99.90
59007;DHT22;44792;52.760;6.726;2023-02-28T01:03:54;4.10;99.90
59007;DHT22;44792;52.760;6.726;2023-02-28T01:06:20;4.10;99.90
59007;DHT22;44792;52.760;6.726;2023-02-28T01:08:45;4.10;99.90
59007;DHT22;44792;52.760;6.726;2023-02-28T01:11:14;4.10;99.90
59007;DHT22;44792;52.760;6.726;2023-02-28T01:13:40;4.10;99.90
59007;DHT22;44792;52.760;6.726;2023-02-28T01:16:06;4.10;99.90
59007;DHT22;44792;52.760;6.726;2023-02-28T01:18:32;4.10;99.90
59007;DHT22;44792;52.760;6.726;2023-02-28T01:20:58;4.10;99.90
59007;DHT22;44792;52.760;6.726;2023-02-28T01:23:24;4.20;99.90
59007;DHT22;44792;52.760;6.726;2023-02-28T01:25:50;4.20;99.90
59007;DHT22;44792;52.760;6.726;2023-02-28T01:28:16;4.20;99.90
59007;DHT22;44792;52.760;6.726;2023-02-28T01:30:42;4.20;99.90
59007;DHT22;44792;52.760;6.726;2023-02-28T01:33:07;4.20;99.90
59007;DHT22;44792;52.760;6.726;2023-02-28T01:35:34;4.20;99.90
59007;DHT22;44792;52.760;6.726;2023-02-28T01:38:00;4.20;99.90
59007;DHT22;44792;52.760;6.726;2023-02-28T01:40:25;4.20;99.90
59007;DHT22;44792;52.760;6.726;2023-02-28T01:42:51;4.20;99.90
59007;DHT22;44792;52.760;6.726;2023-02-28T01:45:27;4.20;99.90
59007;DHT22;44792;52.760;6.726;2023-02-28T01:47:57;4.20;99.90
59007;DHT22;44792;52.760;6.726;2023-02-28T01:50:27;4.10;99.90
59007;DHT22;44792;52.760;6.726;2023-02-28T01:52:59;4.10;99.90
59007;DHT22;44792;52.760;6.726;2023-02-28T01:55:26;4.10;99.90
59007;DHT22;44792;52.760;6.726;2023-02-28T01:57:56;4.10;99.90
59007;DHT22;44792;52.760;6.726;2023-02-28T02:00:25;4.10;99.90
59007;DHT22;44792;52.760;6.726;2023-02-28T02:02:55;4.00;99.90
59007;DHT22;44792;52.760;6.726;2023-02-28T02:05:24;4.10;99.90
59007;DHT22;44792;52.760;6.726;2023-02-28T02:07:54;4.00;99.90
59007;DHT22;44792;52.760;6.726;2023-02-28T02:10:33;4.00;99.90
59007;DHT22;44792;52.760;6.726;2023-02-28T02:19:06;4.10;99.90
59007;DHT22;44792;52.760;6.726;2023-02-28T02:27:39;4.10;99.90
59007;DHT22;44792;52.760;6.726;2023-02-28T02:38:38;4.10;99.90
59007;DHT22;44792;52.760;6.726;2023-02-28T02:41:24;4.20;99.90
59007;DHT22;44792;52.760;6.726;2023-02-28T02:44:02;4.10;99.90
59007;DHT22;44792;52.760;6.726;2023-02-28T02:46:33;4.20;99.90
59007;DHT22;44792;52.760;6.726;2023-02-28T02:49:06;4.20;99.90
59007;DHT22;44792;52.760;6.726;2023-02-28T02:51:33;4.20;99.90
59007;DHT22;44792;52.760;6.726;2023-02-28T02:54:14;4.20;99.90
59007;DHT22;44792;52.760;6.726;2023-02-28T02:56:43;4.10;99.90
59007;DHT22;44792;52.760;6.726;2023-02-28T02:59:12;4.10;99.90
59007;DHT22;44792;52.760;6.726;2023-02-28T03:01:40;4.10;99.90
59007;DHT22;44792;52.760;6.726;2023-02-28T03:04:10;4.10;99.90
59007;DHT22;44792;52.760;6.726;2023-02-28T03:06:36;4.10;99.90
59007;DHT22;44792;52.760;6.726;2023-02-28T03:09:03;4.10;99.90
59007;DHT22;44792;52.760;6.726;2023-02-28T03:11:30;4.10;99.90
59007;DHT22;44792;52.760;6.726;2023-02-28T03:19:33;4.10;99.90
59007;DHT22;44792;52.760;6.726;2023-02-28T03:24:50;4.10;99.90
59007;DHT22;44792;52.760;6.726;2023-02-28T03:27:26;4.10;99.90
59007;DHT22;44792;52.760;6.726;2023-02-28T03:30:24;4.10;99.90
59007;DHT22;44792;52.760;6.726;2023-02-28T03:33:01;4.10;99.90
59007;DHT22;44792;52.760;6.726;2023-02-28T03:35:34;4.10;99.90
59007;DHT22;44792;52.760;6.726;2023-02-28T03:38:05;4.10;99.90
59007;DHT22;44792;52.760;6.726;2023-02-28T03:40:35;4.10;99.90
59007;DHT22;44792;52.760;6.726;2023-02-28T03:43:07;4.10;99.90
59007;DHT22;44792;52.760;6.726;2023-02-28T03:45:36;4.10;99.90
59007;DHT22;44792;52.760;6.726;2023-02-28T03:48:21;4.10;99.90
59007;DHT22;44792;52.760;6.726;2023-02-28T03:50:49;4.10;99.90
59007;DHT22;44792;52.760;6.726;2023-02-28T03:53:38;4.10;99.90
59007;DHT22;44792;52.760;6.726;2023-02-28T03:56:24;4.10;99.90
59007;DHT22;44792;52.760;6.726;2023-02-28T03:59:02;4.10;99.90
59007;DHT22;44792;52.760;6.726;2023-02-28T04:01:40;4.10;99.90
59007;DHT22;44792;52.760;6.726;2023-02-28T04:04:07;4.00;99.90
59007;DHT22;44792;52.760;6.726;2023-02-28T04:06:34;4.00;99.90
59007;DHT22;44792;52.760;6.726;2023-02-28T04:09:01;3.90;99.90
59007;DHT22;44792;52.760;6.726;2023-02-28T04:11:37;4.00;99.90
59007;DHT22;44792;52.760;6.726;2023-02-28T04:14:03;3.90;99.90
59007;DHT22;44792;52.760;6.726;2023-02-28T04:16:34;3.90;99.90
59007;DHT22;44792;52.760;6.726;2023-02-28T04:19:01;3.90;99.90
59007;DHT22;44792;52.760;6.726;2023-02-28T04:21:29;3.80;99.90
59007;DHT22;44792;52.760;6.726;2023-02-28T04:23:55;3.90;99.90
59007;DHT22;44792;52.760;6.726;2023-02-28T04:26:21;3.90;99.90
59007;DHT22;44792;52.760;6.726;2023-02-28T04:28:46;3.90;99.90
59007;DHT22;44792;52.760;6.726;2023-02-28T04:31:12;3.80;99.90
59007;DHT22;44792;52.760;6.726;2023-02-28T04:33:37;3.80;99.90
59007;DHT22;44792;52.760;6.726;2023-02-28T04:36:06;3.80;99.90
59007;DHT22;44792;52.760;6.726;2023-02-28T04:38:34;3.80;99.90
59007;DHT22;44792;52.760;6.726;2023-02-28T04:41:00;3.70;99.90
59007;DHT22;44792;52.760;6.726;2023-02-28T04:43:27;3.80;99.90
59007;DHT22;44792;52.760;6.726;2023-02-28T04:45:53;3.80;99.90
59007;DHT22;44792;52.760;6.726;2023-02-28T04:48:22;3.80;99.90
59007;DHT22;44792;52.760;6.726;2023-02-28T04:50:48;3.80;99.90
59007;DHT22;44792;52.760;6.726;2023-02-28T04:53:14;3.90;99.90
59007;DHT22;44792;52.760;6.726;2023-02-28T04:55:39;3.80;99.90
59007;DHT22;44792;52.760;6.726;2023-02-28T04:58:05;3.80;99.90
59007;DHT22;44792;52.760;6.726;2023-02-28T05:00:30;3.80;99.90
59007;DHT22;44792;52.760;6.726;2023-02-28T05:02:56;3.80;99.90
59007;DHT22;44792;52.760;6.726;2023-02-28T05:05:22;3.80;99.90
59007;DHT22;44792;52.760;6.726;2023-02-28T05:07:47;3.80;99.90
59007;DHT22;44792;52.760;6.726;2023-02-28T05:10:13;3.80;99.90
59007;DHT22;44792;52.760;6.726;2023-02-28T05:12:38;3.90;99.90
59007;DHT22;44792;52.760;6.726;2023-02-28T05:15:04;3.90;99.90
59007;DHT22;44792;52.760;6.726;2023-02-28T05:17:30;3.90;99.90
59007;DHT22;44792;52.760;6.726;2023-02-28T05:19:56;3.90;99.90
59007;DHT22;44792;52.760;6.726;2023-02-28T05:22:22;3.90;99.90
59007;DHT22;44792;52.760;6.726;2023-02-28T05:24:48;3.90;99.90
59007;DHT22;44792;52.760;6.726;2023-02-28T05:27:13;3.90;99.90
59007;DHT22;44792;52.760;6.726;2023-02-28T05:29:39;3.90;99.90
59007;DHT22;44792;52.760;6.726;2023-02-28T05:32:11;3.90;99.90
59007;DHT22;44792;52.760;6.726;2023-02-28T05:34:41;3.90;99.90
59007;DHT22;44792;52.760;6.726;2023-02-28T05:37:11;3.90;99.90
59007;DHT22;44792;52.760;6.726;2023-02-28T05:39:37;3.90;99.90
59007;DHT22;44792;52.760;6.726;2023-02-28T05:42:03;3.90;99.90
59007;DHT22;44792;52.760;6.726;2023-02-28T05:44:28;3.90;99.90
59007;DHT22;44792;52.760;6.726;2023-02-28T05:46:54;3.90;99.90
59007;DHT22;44792;52.760;6.726;2023-02-28T05:49:20;3.90;99.90
59007;DHT22;44792;52.760;6.726;2023-02-28T05:51:45;3.90;99.90
59007;DHT22;44792;52.760;6.726;2023-02-28T05:54:11;3.90;99.90
59007;DHT22;44792;52.760;6.726;2023-02-28T05:56:36;3.90;99.90
59007;DHT22;44792;52.760;6.726;2023-02-28T05:59:05;3.80;99.90
59007;DHT22;44792;52.760;6.726;2023-02-28T06:01:34;3.80;99.90
59007;DHT22;44792;52.760;6.726;2023-02-28T06:04:01;3.80;99.90
59007;DHT22;44792;52.760;6.726;2023-02-28T06:06:28;3.80;99.90
59007;DHT22;44792;52.760;6.726;2023-02-28T06:08:55;3.80;99.90
59007;DHT22;44792;52.760;6.726;2023-02-28T06:11:20;3.80;99.90
59007;DHT22;44792;52.760;6.726;2023-02-28T06:13:46;3.80;99.90
59007;DHT22;44792;52.760;6.726;2023-02-28T06:16:12;3.80;99.90
59007;DHT22;44792;52.760;6.726;2023-02-28T06:18:38;3.90;99.90
59007;DHT22;44792;52.760;6.726;2023-02-28T06:21:04;3.80;99.90
59007;DHT22;44792;52.760;6.726;2023-02-28T06:23:30;3.80;99.90
59007;DHT22;44792;52.760;6.726;2023-02-28T06:25:55;3.80;99.90
59007;DHT22;44792;52.760;6.726;2023-02-28T06:28:24;3.70;99.90
59007;DHT22;44792;52.760;6.726;2023-02-28T06:30:50;3.80;99.90
59007;DHT22;44792;52.760;6.726;2023-02-28T06:33:16;3.80;99.90
59007;DHT22;44792;52.760;6.726;2023-02-28T06:35:44;3.80;99.90
59007;DHT22;44792;52.760;6.726;2023-02-28T06:38:11;3.80;99.90
59007;DHT22;44792;52.760;6.726;2023-02-28T06:40:37;3.80;99.90
59007;DHT22;44792;52.760;6.726;2023-02-28T06:43:03;3.80;99.90
59007;DHT22;44792;52.760;6.726;2023-02-28T06:45:29;3.80;99.90
59007;DHT22;44792;52.760;6.726;2023-02-28T06:47:55;3.80;99.90
59007;DHT22;44792;52.760;6.726;2023-02-28T06:50:20;3.80;99.90
59007;DHT22;44792;52.760;6.726;2023-02-28T06:52:46;3.80;99.90
59007;DHT22;44792;52.760;6.726;2023-02-28T06:55:12;3.80;99.90
59007;DHT22;44792;52.760;6.726;2023-02-28T06:57:38;3.80;99.90
59007;DHT22;44792;52.760;6.726;2023-02-28T07:00:09;3.80;99.90
59007;DHT22;44792;52.760;6.726;2023-02-28T07:02:36;3.80;99.90
59007;DHT22;44792;52.760;6.726;2023-02-28T07:05:06;3.80;99.90
59007;DHT22;44792;52.760;6.726;2023-02-28T07:07:31;3.80;99.90
59007;DHT22;44792;52.760;6.726;2023-02-28T07:09:57;3.90;99.90
59007;DHT22;44792;52.760;6.726;2023-02-28T07:12:23;3.80;99.90
59007;DHT22;44792;52.760;6.726;2023-02-28T07:14:48;3.90;99.90
59007;DHT22;44792;52.760;6.726;2023-02-28T07:17:14;3.90;99.90
59007;DHT22;44792;52.760;6.726;2023-02-28T07:19:40;3.80;99.90
59007;DHT22;44792;52.760;6.726;2023-02-28T07:22:06;3.80;99.90
59007;DHT22;44792;52.760;6.726;2023-02-28T07:24:31;3.90;99.90
59007;DHT22;44792;52.760;6.726;2023-02-28T07:26:57;4.00;99.90
59007;DHT22;44792;52.760;6.726;2023-02-28T07:29:24;4.00;99.90
59007;DHT22;44792;52.760;6.726;2023-02-28T07:31:50;4.10;99.90
59007;DHT22;44792;52.760;6.726;2023-02-28T07:34:19;4.10;99.90
59007;DHT22;44792;52.760;6.726;2023-02-28T07:36:44;4.10;99.90
59007;DHT22;44792;52.760;6.726;2023-02-28T07:39:10;4.10;99.90
59007;DHT22;44792;52.760;6.726;2023-02-28T07:41:36;4.20;99.90
59007;DHT22;44792;52.760;6.726;2023-02-28T07:44:11;4.20;99.90
59007;DHT22;44792;52.760;6.726;2023-02-28T07:46:37;4.30;99.90
59007;DHT22;44792;52.760;6.726;2023-02-28T07:49:03;4.30;99.90
59007;DHT22;44792;52.760;6.726;2023-02-28T07:51:29;4.40;99.90
59007;DHT22;44792;52.760;6.726;2023-02-28T07:53:55;4.50;99.90
59007;DHT22;44792;52.760;6.726;2023-02-28T07:56:21;4.50;99.90
59007;DHT22;44792;52.760;6.726;2023-02-28T07:58:46;4.50;99.90
59007;DHT22;44792;52.760;6.726;2023-02-28T08:01:12;4.50;99.90
59007;DHT22;44792;52.760;6.726;2023-02-28T08:03:39;4.50;99.90
59007;DHT22;44792;52.760;6.726;2023-02-28T08:06:06;4.50;99.90
59007;DHT22;44792;52.760;6.726;2023-02-28T08:08:32;4.50;99.90
59007;DHT22;44792;52.760;6.726;2023-02-28T08:11:04;4.40;99.90
59007;DHT22;44792;52.760;6.726;2023-02-28T08:13:30;4.40;99.90
59007;DHT22;44792;52.760;6.726;2023-02-28T08:15:56;4.30;99.90
59007;DHT22;44792;52.760;6.726;2023-02-28T08:18:22;4.40;99.90
59007;DHT22;44792;52.760;6.726;2023-02-28T08:20:48;4.30;99.90
59007;DHT22;44792;52.760;6.726;2023-02-28T08:23:14;4.30;99.90
59007;DHT22;44792;52.760;6.726;2023-02-28T08:25:40;4.30;99.90
59007;DHT22;44792;52.760;6.726;2023-02-28T08:28:05;4.40;99.90
59007;DHT22;44792;52.760;6.726;2023-02-28T08:30:31;4.50;99.90
59007;DHT22;44792;52.760;6.726;2023-02-28T08:32:57;4.50;99.90
59007;DHT22;44792;52.760;6.726;2023-02-28T08:35:22;4.50;99.90
59007;DHT22;44792;52.760;6.726;2023-02-28T08:37:48;4.50;99.90
59007;DHT22;44792;52.760;6.726;2023-02-28T08:40:15;4.50;99.90
59007;DHT22;44792;52.760;6.726;2023-02-28T08:42:46;4.50;99.90
59007;DHT22;44792;52.760;6.726;2023-02-28T08:45:14;4.50;99.90
59007;DHT22;44792;52.760;6.726;2023-02-28T08:47:40;4.50;99.90
59007;DHT22;44792;52.760;6.726;2023-02-28T08:50:07;4.50;99.90
59007;DHT22;44792;52.760;6.726;2023-02-28T08:52:33;4.50;99.90
59007;DHT22;44792;52.760;6.726;2023-02-28T08:54:58;4.50;99.90
59007;DHT22;44792;52.760;6.726;2023-02-28T08:57:24;4.60;99.90
59007;DHT22;44792;52.760;6.726;2023-02-28T08:59:51;4.60;99.90
59007;DHT22;44792;52.760;6.726;2023-02-28T09:02:18;4.70;99.90
59007;DHT22;44792;52.760;6.726;2023-02-28T09:04:43;4.70;99.90
59007;DHT22;44792;52.760;6.726;2023-02-28T09:07:11;4.70;99.90
59007;DHT22;44792;52.760;6.726;2023-02-28T09:09:36;4.80;99.90
59007;DHT22;44792;52.760;6.726;2023-02-28T09:12:02;4.80;99.90
59007;DHT22;44792;52.760;6.726;2023-02-28T09:14:28;4.80;99.90
59007;DHT22;44792;52.760;6.726;2023-02-28T09:16:54;4.80;99.90
59007;DHT22;44792;52.760;6.726;2023-02-28T09:19:20;4.80;99.90
59007;DHT22;44792;52.760;6.726;2023-02-28T09:21:45;4.60;99.90
59007;DHT22;44792;52.760;6.726;2023-02-28T09:24:11;4.60;99.90
59007;DHT22;44792;52.760;6.726;2023-02-28T09:26:39;4.60;99.90
59007;DHT22;44792;52.760;6.726;2023-02-28T09:29:05;4.70;99.90
59007;DHT22;44792;52.760;6.726;2023-02-28T09:31:32;4.70;99.90
59007;DHT22;44792;52.760;6.726;2023-02-28T09:33:58;4.70;99.90
59007;DHT22;44792;52.760;6.726;2023-02-28T09:36:25;4.70;99.90
59007;DHT22;44792;52.760;6.726;2023-02-28T09:38:52;4.80;99.90
59007;DHT22;44792;52.760;6.726;2023-02-28T09:41:32;4.70;99.90
59007;DHT22;44792;52.760;6.726;2023-02-28T09:44:05;4.70;99.90
59007;DHT22;44792;52.760;6.726;2023-02-28T09:46:45;4.80;99.90
59007;DHT22;44792;52.760;6.726;2023-02-28T09:49:18;4.70;99.90
59007;DHT22;44792;52.760;6.726;2023-02-28T09:52:07;4.80;99.90
59007;DHT22;44792;52.760;6.726;2023-02-28T09:54:34;4.80;99.90
59007;DHT22;44792;52.760;6.726;2023-02-28T10:02:55;4.90;99.90
59007;DHT22;44792;52.760;6.726;2023-02-28T10:05:28;5.00;99.90
59007;DHT22;44792;52.760;6.726;2023-02-28T10:08:12;5.00;99.90
59007;DHT22;44792;52.760;6.726;2023-02-28T10:10:50;4.90;99.90
59007;DHT22;44792;52.760;6.726;2023-02-28T10:16:20;5.00;99.90
59007;DHT22;44792;52.760;6.726;2023-02-28T10:18:52;5.00;99.90
59007;DHT22;44792;52.760;6.726;2023-02-28T10:21:44;5.10;99.90
59007;DHT22;44792;52.760;6.726;2023-02-28T10:24:33;5.20;99.90
59007;DHT22;44792;52.760;6.726;2023-02-28T10:27:10;5.30;99.90
59007;DHT22;44792;52.760;6.726;2023-02-28T10:29:42;5.30;99.90
59007;DHT22;44792;52.760;6.726;2023-02-28T10:32:11;5.30;99.90
59007;DHT22;44792;52.760;6.726;2023-02-28T10:34:38;5.40;99.90
59007;DHT22;44792;52.760;6.726;2023-02-28T10:37:04;5.30;99.90
59007;DHT22;44792;52.760;6.726;2023-02-28T10:39:38;5.30;99.90
59007;DHT22;44792;52.760;6.726;2023-02-28T10:42:04;5.30;99.90
59007;DHT22;44792;52.760;6.726;2023-02-28T10:44:30;5.30;99.90
59007;DHT22;44792;52.760;6.726;2023-02-28T10:46:56;5.30;99.90
59007;DHT22;44792;52.760;6.726;2023-02-28T10:49:28;5.30;99.90
59007;DHT22;44792;52.760;6.726;2023-02-28T10:51:59;5.30;99.90
59007;DHT22;44792;52.760;6.726;2023-02-28T10:54:31;5.30;99.90
59007;DHT22;44792;52.760;6.726;2023-02-28T10:57:09;5.30;99.90
59007;DHT22;44792;52.760;6.726;2023-02-28T10:59:39;5.40;99.90
59007;DHT22;44792;52.760;6.726;2023-02-28T11:02:29;5.50;99.90
59007;DHT22;44792;52.760;6.726;2023-02-28T11:04:55;5.50;99.90
59007;DHT22;44792;52.760;6.726;2023-02-28T11:07:22;5.50;99.90
59007;DHT22;44792;52.760;6.726;2023-02-28T11:09:51;5.50;99.90
59007;DHT22;44792;52.760;6.726;2023-02-28T11:14:52;5.40;99.90
59007;DHT22;44792;52.760;6.726;2023-02-28T11:17:24;5.40;99.90
59007;DHT22;44792;52.760;6.726;2023-02-28T11:19:58;5.50;99.90
59007;DHT22;44792;52.760;6.726;2023-02-28T11:22:31;5.50;99.90
59007;DHT22;44792;52.760;6.726;2023-02-28T11:25:07;5.50;99.90
59007;DHT22;44792;52.760;6.726;2023-02-28T11:30:03;5.70;99.90
59007;DHT22;44792;52.760;6.726;2023-02-28T11:32:30;5.70;99.90
59007;DHT22;44792;52.760;6.726;2023-02-28T11:37:28;5.80;99.90
59007;DHT22;44792;52.760;6.726;2023-02-28T11:39:54;5.80;99.90
59007;DHT22;44792;52.760;6.726;2023-02-28T11:42:50;5.90;99.90
59007;DHT22;44792;52.760;6.726;2023-02-28T11:45:41;5.80;99.90
59007;DHT22;44792;52.760;6.726;2023-02-28T11:51:22;5.80;99.90
59007;DHT22;44792;52.760;6.726;2023-02-28T11:56:58;5.80;99.90
59007;DHT22;44792;52.760;6.726;2023-02-28T11:59:56;5.80;99.90
59007;DHT22;44792;52.760;6.726;2023-02-28T12:05:29;6.00;99.90
59007;DHT22;44792;52.760;6.726;2023-02-28T12:08:48;6.00;99.90
59007;DHT22;44792;52.760;6.726;2023-02-28T12:11:03;6.00;99.90
59007;DHT22;44792;52.760;6.726;2023-02-28T12:13:53;6.00;99.90
59007;DHT22;44792;52.760;6.726;2023-02-28T12:16:33;6.10;99.90
59007;DHT22;44792;52.760;6.726;2023-02-28T12:19:21;6.20;99.90
59007;DHT22;44792;52.760;6.726;2023-02-28T12:24:50;6.20;99.90
59007;DHT22;44792;52.760;6.726;2023-02-28T12:27:21;6.30;99.90
59007;DHT22;44792;52.760;6.726;2023-02-28T12:30:17;6.20;99.90
59007;DHT22;44792;52.760;6.726;2023-02-28T12:32:53;6.30;99.90
59007;DHT22;44792;52.760;6.726;2023-02-28T12:38:17;6.30;99.90
59007;DHT22;44792;52.760;6.726;2023-02-28T12:43:22;6.20;99.90
59007;DHT22;44792;52.760;6.726;2023-02-28T12:45:56;6.30;99.90
59007;DHT22;44792;52.760;6.726;2023-02-28T12:48:57;6.30;99.90
59007;DHT22;44792;52.760;6.726;2023-02-28T12:51:25;6.30;99.90
59007;DHT22;44792;52.760;6.726;2023-02-28T12:54:14;6.30;99.90
59007;DHT22;44792;52.760;6.726;2023-02-28T12:56:49;6.30;99.90
59007;DHT22;44792;52.760;6.726;2023-02-28T13:02:19;6.30;99.90
59007;DHT22;44792;52.760;6.726;2023-02-28T13:08:39;6.20;99.90
59007;DHT22;44792;52.760;6.726;2023-02-28T13:14:02;6.20;99.90
59007;DHT22;44792;52.760;6.726;2023-02-28T13:17:09;6.20;99.90
59007;DHT22;44792;52.760;6.726;2023-02-28T13:19:31;6.10;99.90
59007;DHT22;44792;52.760;6.726;2023-02-28T13:21:59;6.10;99.90
59007;DHT22;44792;52.760;6.726;2023-02-28T13:24:48;6.20;99.90
59007;DHT22;44792;52.760;6.726;2023-02-28T13:29:41;6.30;99.90
59007;DHT22;44792;52.760;6.726;2023-02-28T13:34:34;6.30;99.90
59007;DHT22;44792;52.760;6.726;2023-02-28T13:39:54;6.30;99.90
59007;DHT22;44792;52.760;6.726;2023-02-28T13:42:46;6.30;99.90
59007;DHT22;44792;52.760;6.726;2023-02-28T13:47:49;6.40;99.90
59007;DHT22;44792;52.760;6.726;2023-02-28T13:55:31;6.40;99.90
59007;DHT22;44792;52.760;6.726;2023-02-28T14:06:34;6.50;99.90
59007;DHT22;44792;52.760;6.726;2023-02-28T14:11:51;6.60;99.90
59007;DHT22;44792;52.760;6.726;2023-02-28T14:17:03;6.60;99.90
59007;DHT22;44792;52.760;6.726;2023-02-28T14:19:34;6.70;99.90
59007;DHT22;44792;52.760;6.726;2023-02-28T14:37:56;6.80;99.90
59007;DHT22;44792;52.760;6.726;2023-02-28T14:40:29;6.70;99.90
59007;DHT22;44792;52.760;6.726;2023-02-28T14:42:58;6.70;99.90
59007;DHT22;44792;52.760;6.726;2023-02-28T14:45:29;6.70;99.90
59007;DHT22;44792;52.760;6.726;2023-02-28T14:47:57;6.70;99.90
59007;DHT22;44792;52.760;6.726;2023-02-28T14:50:29;6.70;99.90
59007;DHT22;44792;52.760;6.726;2023-02-28T14:52:56;6.60;99.90
59007;DHT22;44792;52.760;6.726;2023-02-28T14:55:34;6.70;99.90
59007;DHT22;44792;52.760;6.726;2023-02-28T14:58:03;6.70;99.90
59007;DHT22;44792;52.760;6.726;2023-02-28T15:00:35;6.80;99.90
59007;DHT22;44792;52.760;6.726;2023-02-28T15:03:19;6.70;99.90
59007;DHT22;44792;52.760;6.726;2023-02-28T15:05:59;6.70;99.90
59007;DHT22;44792;52.760;6.726;2023-02-28T15:08:25;6.80;99.90
59007;DHT22;44792;52.760;6.726;2023-02-28T15:11:02;6.80;99.90
59007;DHT22;44792;52.760;6.726;2023-02-28T15:13:46;6.70;99.90
59007;DHT22;44792;52.760;6.726;2023-02-28T15:16:22;6.80;99.90
59007;DHT22;44792;52.760;6.726;2023-02-28T15:18:50;6.80;99.90
59007;DHT22;44792;52.760;6.726;2023-02-28T15:24:10;6.70;99.90
59007;DHT22;44792;52.760;6.726;2023-02-28T15:26:41;6.70;99.90
59007;DHT22;44792;52.760;6.726;2023-02-28T15:29:20;6.80;99.90
59007;DHT22;44792;52.760;6.726;2023-02-28T15:32:00;6.80;99.90
59007;DHT22;44792;52.760;6.726;2023-02-28T15:34:36;6.80;99.90
59007;DHT22;44792;52.760;6.726;2023-02-28T15:39:50;6.80;99.90
59007;DHT22;44792;52.760;6.726;2023-02-28T15:42:21;6.80;99.90
59007;DHT22;44792;52.760;6.726;2023-02-28T15:44:47;6.80;99.90
59007;DHT22;44792;52.760;6.726;2023-02-28T15:47:19;6.80;99.90
59007;DHT22;44792;52.760;6.726;2023-02-28T15:52:21;6.70;99.90
59007;DHT22;44792;52.760;6.726;2023-02-28T15:54:48;6.70;99.90
59007;DHT22;44792;52.760;6.726;2023-02-28T15:57:23;6.80;99.90
59007;DHT22;44792;52.760;6.726;2023-02-28T15:59:54;6.80;99.90
59007;DHT22;44792;52.760;6.726;2023-02-28T16:02:41;6.80;99.90
59007;DHT22;44792;52.760;6.726;2023-02-28T16:07:42;6.70;99.90
59007;DHT22;44792;52.760;6.726;2023-02-28T16:10:11;6.70;99.90
59007;DHT22;44792;52.760;6.726;2023-02-28T16:12:38;6.70;99.90
59007;DHT22;44792;52.760;6.726;2023-02-28T16:15:19;6.70;99.90
59007;DHT22;44792;52.760;6.726;2023-02-28T16:17:45;6.70;99.90
59007;DHT22;44792;52.760;6.726;2023-02-28T16:20:23;6.70;99.90
59007;DHT22;44792;52.760;6.726;2023-02-28T16:22:49;6.70;99.90
59007;DHT22;44792;52.760;6.726;2023-02-28T16:25:24;6.60;99.90
59007;DHT22;44792;52.760;6.726;2023-02-28T16:27:52;6.60;99.90
59007;DHT22;44792;52.760;6.726;2023-02-28T16:30:24;6.60;99.90
59007;DHT22;44792;52.760;6.726;2023-02-28T16:32:50;6.50;99.90
59007;DHT22;44792;52.760;6.726;2023-02-28T16:35:17;6.50;99.90
59007;DHT22;44792;52.760;6.726;2023-02-28T16:37:43;6.50;99.90
59007;DHT22;44792;52.760;6.726;2023-02-28T16:40:21;6.40;99.90
59007;DHT22;44792;52.760;6.726;2023-02-28T16:42:49;6.40;99.90
59007;DHT22;44792;52.760;6.726;2023-02-28T16:45:23;6.40;99.90
59007;DHT22;44792;52.760;6.726;2023-02-28T16:47:50;6.30;99.90
59007;DHT22;44792;52.760;6.726;2023-02-28T16:50:28;6.30;99.90
59007;DHT22;44792;52.760;6.726;2023-02-28T16:52:54;6.20;99.90
59007;DHT22;44792;52.760;6.726;2023-02-28T16:55:20;6.20;99.90
59007;DHT22;44792;52.760;6.726;2023-02-28T16:58:01;6.10;99.90
59007;DHT22;44792;52.760;6.726;2023-02-28T17:00:28;6.20;99.90
59007;DHT22;44792;52.760;6.726;2023-02-28T17:02:55;6.10;99.90
59007;DHT22;44792;52.760;6.726;2023-02-28T17:05:22;6.10;99.90
59007;DHT22;44792;52.760;6.726;2023-02-28T17:07:48;6.00;99.90
59007;DHT22;44792;52.760;6.726;2023-02-28T17:10:20;5.90;99.90
59007;DHT22;44792;52.760;6.726;2023-02-28T17:12:45;5.90;99.90
59007;DHT22;44792;52.760;6.726;2023-02-28T17:15:12;5.90;99.90
59007;DHT22;44792;52.760;6.726;2023-02-28T17:17:39;5.90;99.90
59007;DHT22;44792;52.760;6.726;2023-02-28T17:20:05;5.80;99.90
59007;DHT22;44792;52.760;6.726;2023-02-28T17:22:31;5.70;99.90
59007;DHT22;44792;52.760;6.726;2023-02-28T17:24:57;5.60;99.90
59007;DHT22;44792;52.760;6.726;2023-02-28T17:27:24;5.50;99.90
59007;DHT22;44792;52.760;6.726;2023-02-28T17:29:50;5.50;99.90
59007;DHT22;44792;52.760;6.726;2023-02-28T17:32:15;5.40;99.90
59007;DHT22;44792;52.760;6.726;2023-02-28T17:34:41;5.40;99.90
59007;DHT22;44792;52.760;6.726;2023-02-28T17:37:09;5.30;99.90
59007;DHT22;44792;52.760;6.726;2023-02-28T17:39:35;5.20;99.90
59007;DHT22;44792;52.760;6.726;2023-02-28T17:42:01;5.20;99.90
59007;DHT22;44792;52.760;6.726;2023-02-28T17:44:26;5.10;99.90
59007;DHT22;44792;52.760;6.726;2023-02-28T17:46:53;5.00;99.90
59007;DHT22;44792;52.760;6.726;2023-02-28T17:49:20;4.90;99.90
59007;DHT22;44792;52.760;6.726;2023-02-28T17:51:46;4.90;99.90
59007;DHT22;44792;52.760;6.726;2023-02-28T17:54:12;4.80;99.90
59007;DHT22;44792;52.760;6.726;2023-02-28T17:56:40;4.60;99.90
59007;DHT22;44792;52.760;6.726;2023-02-28T17:59:06;4.60;99.90
59007;DHT22;44792;52.760;6.726;2023-02-28T18:01:33;4.50;99.90
59007;DHT22;44792;52.760;6.726;2023-02-28T18:03:59;4.40;99.90
59007;DHT22;44792;52.760;6.726;2023-02-28T18:06:30;4.30;99.90
59007;DHT22;44792;52.760;6.726;2023-02-28T18:08:58;4.30;99.90